sensor_id;sensor_type;location;lat;lon;timestamp;P1;durP1;ratioP1;P2;durP2;ratioP2
59950;SDS011;45812;53.540;9.774;2023-06-22T00:01:46;5.20;;;3.50;;
59950;SDS011;45812;53.540;9.774;2023-06-22T00:04:11;9.77;;;4.27;;
59950;SDS011;45812;53.540;9.774;2023-06-22T00:06:36;5.97;;;3.90;;
59950;SDS011;45812;53.540;9.774;2023-06-22T00:09:02;7.33;;;3.70;;
59950;SDS011;45812;53.540;9.774;2023-06-22T00:11:28;8.80;;;4.22;;
59950;SDS011;45812;53.540;9.774;2023-06-22T00:13:53;7.25;;;4.10;;
59950;SDS011;45812;53.540;9.774;2023-06-22T00:16:18;7.13;;;3.85;;
59950;SDS011;45812;53.540;9.774;2023-06-22T00:18:43;6.20;;;4.03;;
59950;SDS011;45812;53.540;9.774;2023-06-22T00:21:12;7.20;;;4.03;;
59950;SDS011;45812;53.540;9.774;2023-06-22T00:23:37;6.47;;;3.90;;
59950;SDS011;45812;53.540;9.774;2023-06-22T00:26:02;8.93;;;3.83;;
59950;SDS011;45812;53.540;9.774;2023-06-22T00:28:28;7.37;;;3.67;;
59950;SDS011;45812;53.540;9.774;2023-06-22T00:30:54;6.85;;;3.90;;
59950;SDS011;45812;53.540;9.774;2023-06-22T00:33:19;6.13;;;3.78;;
59950;SDS011;45812;53.540;9.774;2023-06-22T00:35:44;9.77;;;4.10;;
59950;SDS011;45812;53.540;9.774;2023-06-22T00:38:10;6.05;;;4.32;;
59950;SDS011;45812;53.540;9.774;2023-06-22T00:40:35;4.47;;;3.35;;
59950;SDS011;45812;53.540;9.774;2023-06-22T00:43:01;4.65;;;3.50;;
59950;SDS011;45812;53.540;9.774;2023-06-22T00:45:26;7.00;;;4.20;;
59950;SDS011;45812;53.540;9.774;2023-06-22T00:47:52;8.43;;;4.40;;
59950;SDS011;45812;53.540;9.774;2023-06-22T00:50:19;6.22;;;4.18;;
59950;SDS011;45812;53.540;9.774;2023-06-22T00:52:48;6.90;;;4.13;;
59950;SDS011;45812;53.540;9.774;2023-06-22T00:55:15;5.65;;;4.40;;
59950;SDS011;45812;53.540;9.774;2023-06-22T00:57:42;7.93;;;4.35;;
59950;SDS011;45812;53.540;9.774;2023-06-22T01:00:10;6.32;;;4.55;;
59950;SDS011;45812;53.540;9.774;2023-06-22T01:05:14;7.53;;;3.85;;
59950;SDS011;45812;53.540;9.774;2023-06-22T01:13:24;10.05;;;6.25;;
59950;SDS011;45812;53.540;9.774;2023-06-22T01:15:52;7.05;;;4.70;;
59950;SDS011;45812;53.540;9.774;2023-06-22T01:18:28;8.93;;;4.63;;
59950;SDS011;45812;53.540;9.774;2023-06-22T01:20:56;12.20;;;5.32;;
59950;SDS011;45812;53.540;9.774;2023-06-22T01:23:29;8.80;;;4.78;;
59950;SDS011;45812;53.540;9.774;2023-06-22T01:29:03;8.95;;;5.57;;
59950;SDS011;45812;53.540;9.774;2023-06-22T01:31:30;9.65;;;5.72;;
59950;SDS011;45812;53.540;9.774;2023-06-22T01:34:01;8.32;;;5.13;;
59950;SDS011;45812;53.540;9.774;2023-06-22T01:36:28;7.70;;;5.05;;
59950;SDS011;45812;53.540;9.774;2023-06-22T01:38:55;8.02;;;4.45;;
59950;SDS011;45812;53.540;9.774;2023-06-22T01:41:24;6.63;;;4.35;;
59950;SDS011;45812;53.540;9.774;2023-06-22T01:43:51;9.90;;;4.57;;
59950;SDS011;45812;53.540;9.774;2023-06-22T01:46:18;7.30;;;4.78;;
59950;SDS011;45812;53.540;9.774;2023-06-22T01:48:44;9.90;;;5.50;;
59950;SDS011;45812;53.540;9.774;2023-06-22T01:51:11;9.43;;;5.28;;
59950;SDS011;45812;53.540;9.774;2023-06-22T01:53:37;11.20;;;6.00;;
59950;SDS011;45812;53.540;9.774;2023-06-22T01:56:02;10.67;;;5.13;;
59950;SDS011;45812;53.540;9.774;2023-06-22T01:58:28;8.55;;;5.22;;
59950;SDS011;45812;53.540;9.774;2023-06-22T02:01:17;11.43;;;5.15;;
59950;SDS011;45812;53.540;9.774;2023-06-22T02:03:44;7.78;;;4.18;;
59950;SDS011;45812;53.540;9.774;2023-06-22T02:06:23;10.32;;;4.28;;
59950;SDS011;45812;53.540;9.774;2023-06-22T02:08:57;7.50;;;4.85;;
59950;SDS011;45812;53.540;9.774;2023-06-22T02:11:26;7.88;;;4.25;;
59950;SDS011;45812;53.540;9.774;2023-06-22T02:13:53;7.45;;;4.30;;
59950;SDS011;45812;53.540;9.774;2023-06-22T02:16:20;8.23;;;4.57;;
59950;SDS011;45812;53.540;9.774;2023-06-22T02:18:47;5.57;;;4.30;;
59950;SDS011;45812;53.540;9.774;2023-06-22T02:21:16;9.48;;;5.00;;
59950;SDS011;45812;53.540;9.774;2023-06-22T02:23:44;7.57;;;4.72;;
59950;SDS011;45812;53.540;9.774;2023-06-22T02:26:10;10.07;;;5.00;;
59950;SDS011;45812;53.540;9.774;2023-06-22T02:28:36;9.25;;;4.68;;
59950;SDS011;45812;53.540;9.774;2023-06-22T02:31:02;7.97;;;4.43;;
59950;SDS011;45812;53.540;9.774;2023-06-22T02:33:27;7.57;;;4.40;;
59950;SDS011;45812;53.540;9.774;2023-06-22T02:35:52;8.75;;;4.70;;
59950;SDS011;45812;53.540;9.774;2023-06-22T02:38:18;7.40;;;4.45;;
59950;SDS011;45812;53.540;9.774;2023-06-22T02:40:44;6.03;;;4.35;;
59950;SDS011;45812;53.540;9.774;2023-06-22T02:43:09;9.05;;;5.20;;
59950;SDS011;45812;53.540;9.774;2023-06-22T02:45:35;7.40;;;4.97;;
59950;SDS011;45812;53.540;9.774;2023-06-22T02:48:00;10.27;;;5.00;;
59950;SDS011;45812;53.540;9.774;2023-06-22T02:50:25;10.98;;;4.97;;
59950;SDS011;45812;53.540;9.774;2023-06-22T02:52:50;8.30;;;5.17;;
59950;SDS011;45812;53.540;9.774;2023-06-22T02:55:16;9.20;;;4.30;;
59950;SDS011;45812;53.540;9.774;2023-06-22T02:57:41;13.10;;;4.72;;
59950;SDS011;45812;53.540;9.774;2023-06-22T03:00:10;8.65;;;5.85;;
59950;SDS011;45812;53.540;9.774;2023-06-22T03:02:42;12.50;;;6.07;;
59950;SDS011;45812;53.540;9.774;2023-06-22T03:05:09;8.68;;;4.78;;
59950;SDS011;45812;53.540;9.774;2023-06-22T03:07:38;8.75;;;5.15;;
59950;SDS011;45812;53.540;9.774;2023-06-22T03:10:03;9.77;;;5.55;;
59950;SDS011;45812;53.540;9.774;2023-06-22T03:12:29;8.60;;;5.60;;
59950;SDS011;45812;53.540;9.774;2023-06-22T03:14:54;11.50;;;5.13;;
59950;SDS011;45812;53.540;9.774;2023-06-22T03:17:19;8.80;;;5.30;;
59950;SDS011;45812;53.540;9.774;2023-06-22T03:19:45;11.15;;;5.30;;
59950;SDS011;45812;53.540;9.774;2023-06-22T03:22:10;10.40;;;5.47;;
59950;SDS011;45812;53.540;9.774;2023-06-22T03:24:35;10.03;;;4.87;;
59950;SDS011;45812;53.540;9.774;2023-06-22T03:27:02;9.73;;;5.43;;
59950;SDS011;45812;53.540;9.774;2023-06-22T03:29:29;7.18;;;5.05;;
59950;SDS011;45812;53.540;9.774;2023-06-22T03:31:55;13.20;;;5.50;;
59950;SDS011;45812;53.540;9.774;2023-06-22T03:34:20;14.97;;;6.77;;
59950;SDS011;45812;53.540;9.774;2023-06-22T03:36:45;12.27;;;7.00;;
59950;SDS011;45812;53.540;9.774;2023-06-22T03:39:10;10.40;;;5.63;;
59950;SDS011;45812;53.540;9.774;2023-06-22T03:41:36;12.77;;;5.93;;
59950;SDS011;45812;53.540;9.774;2023-06-22T03:44:01;10.87;;;6.40;;
59950;SDS011;45812;53.540;9.774;2023-06-22T03:46:26;14.30;;;6.10;;
59950;SDS011;45812;53.540;9.774;2023-06-22T03:48:51;15.43;;;7.05;;
59950;SDS011;45812;53.540;9.774;2023-06-22T03:51:17;15.27;;;7.17;;
59950;SDS011;45812;53.540;9.774;2023-06-22T03:53:42;16.60;;;7.13;;
59950;SDS011;45812;53.540;9.774;2023-06-22T03:56:08;14.88;;;7.78;;
59950;SDS011;45812;53.540;9.774;2023-06-22T03:58:33;11.15;;;6.80;;
59950;SDS011;45812;53.540;9.774;2023-06-22T04:01:00;11.38;;;6.38;;
59950;SDS011;45812;53.540;9.774;2023-06-22T04:03:25;10.47;;;5.43;;
59950;SDS011;45812;53.540;9.774;2023-06-22T04:05:50;9.95;;;5.68;;
59950;SDS011;45812;53.540;9.774;2023-06-22T04:08:16;9.05;;;5.43;;
59950;SDS011;45812;53.540;9.774;2023-06-22T04:10:41;16.90;;;6.43;;
59950;SDS011;45812;53.540;9.774;2023-06-22T04:13:07;15.00;;;7.45;;
59950;SDS011;45812;53.540;9.774;2023-06-22T04:15:32;8.57;;;6.00;;
59950;SDS011;45812;53.540;9.774;2023-06-22T04:17:57;11.00;;;6.47;;
59950;SDS011;45812;53.540;9.774;2023-06-22T04:20:23;12.23;;;6.40;;
59950;SDS011;45812;53.540;9.774;2023-06-22T04:22:51;10.90;;;6.75;;
59950;SDS011;45812;53.540;9.774;2023-06-22T04:25:17;9.55;;;6.03;;
59950;SDS011;45812;53.540;9.774;2023-06-22T04:27:42;13.50;;;6.20;;
59950;SDS011;45812;53.540;9.774;2023-06-22T04:30:08;10.50;;;5.80;;
59950;SDS011;45812;53.540;9.774;2023-06-22T04:32:36;7.97;;;5.60;;
59950;SDS011;45812;53.540;9.774;2023-06-22T04:35:02;11.00;;;5.10;;
59950;SDS011;45812;53.540;9.774;2023-06-22T04:37:29;13.98;;;5.72;;
59950;SDS011;45812;53.540;9.774;2023-06-22T04:39:55;13.85;;;6.28;;
59950;SDS011;45812;53.540;9.774;2023-06-22T04:42:20;12.63;;;5.60;;
59950;SDS011;45812;53.540;9.774;2023-06-22T04:44:45;14.38;;;6.45;;
59950;SDS011;45812;53.540;9.774;2023-06-22T04:47:11;13.33;;;6.57;;
59950;SDS011;45812;53.540;9.774;2023-06-22T04:49:36;12.27;;;6.28;;
59950;SDS011;45812;53.540;9.774;2023-06-22T04:52:03;14.25;;;6.63;;
59950;SDS011;45812;53.540;9.774;2023-06-22T04:54:30;9.75;;;5.80;;
59950;SDS011;45812;53.540;9.774;2023-06-22T04:56:57;11.63;;;6.40;;
59950;SDS011;45812;53.540;9.774;2023-06-22T04:59:27;13.52;;;6.93;;
59950;SDS011;45812;53.540;9.774;2023-06-22T05:01:58;12.80;;;6.80;;
59950;SDS011;45812;53.540;9.774;2023-06-22T05:04:25;13.55;;;6.20;;
59950;SDS011;45812;53.540;9.774;2023-06-22T05:06:52;12.10;;;5.95;;
59950;SDS011;45812;53.540;9.774;2023-06-22T05:09:19;10.45;;;5.38;;
59950;SDS011;45812;53.540;9.774;2023-06-22T05:11:44;11.32;;;5.63;;
59950;SDS011;45812;53.540;9.774;2023-06-22T05:14:10;11.88;;;5.82;;
59950;SDS011;45812;53.540;9.774;2023-06-22T05:16:36;11.18;;;5.53;;
59950;SDS011;45812;53.540;9.774;2023-06-22T05:19:01;13.55;;;6.53;;
59950;SDS011;45812;53.540;9.774;2023-06-22T05:21:28;15.25;;;6.13;;
59950;SDS011;45812;53.540;9.774;2023-06-22T05:23:54;13.52;;;6.20;;
59950;SDS011;45812;53.540;9.774;2023-06-22T05:26:24;11.52;;;6.30;;
59950;SDS011;45812;53.540;9.774;2023-06-22T05:28:50;18.27;;;7.28;;
59950;SDS011;45812;53.540;9.774;2023-06-22T05:31:15;11.68;;;6.47;;
59950;SDS011;45812;53.540;9.774;2023-06-22T05:33:41;15.55;;;6.95;;
59950;SDS011;45812;53.540;9.774;2023-06-22T05:36:08;17.10;;;7.28;;
59950;SDS011;45812;53.540;9.774;2023-06-22T05:38:34;15.30;;;6.82;;
59950;SDS011;45812;53.540;9.774;2023-06-22T05:40:59;13.32;;;6.82;;
59950;SDS011;45812;53.540;9.774;2023-06-22T05:43:24;11.93;;;6.20;;
59950;SDS011;45812;53.540;9.774;2023-06-22T05:45:50;15.63;;;6.20;;
59950;SDS011;45812;53.540;9.774;2023-06-22T05:48:15;10.30;;;5.75;;
59950;SDS011;45812;53.540;9.774;2023-06-22T05:50:40;17.50;;;5.67;;
59950;SDS011;45812;53.540;9.774;2023-06-22T05:53:05;11.80;;;6.10;;
59950;SDS011;45812;53.540;9.774;2023-06-22T05:55:31;12.60;;;5.38;;
59950;SDS011;45812;53.540;9.774;2023-06-22T05:57:57;15.63;;;5.38;;
59950;SDS011;45812;53.540;9.774;2023-06-22T06:00:22;11.00;;;5.72;;
59950;SDS011;45812;53.540;9.774;2023-06-22T06:02:49;9.80;;;5.35;;
59950;SDS011;45812;53.540;9.774;2023-06-22T06:05:14;12.82;;;5.32;;
59950;SDS011;45812;53.540;9.774;2023-06-22T06:07:40;14.73;;;5.38;;
59950;SDS011;45812;53.540;9.774;2023-06-22T06:10:06;7.18;;;4.25;;
59950;SDS011;45812;53.540;9.774;2023-06-22T06:12:32;11.35;;;4.68;;
59950;SDS011;45812;53.540;9.774;2023-06-22T06:14:57;9.55;;;4.95;;
59950;SDS011;45812;53.540;9.774;2023-06-22T06:17:22;8.20;;;4.50;;
59950;SDS011;45812;53.540;9.774;2023-06-22T06:19:48;7.97;;;5.05;;
59950;SDS011;45812;53.540;9.774;2023-06-22T06:22:13;9.10;;;4.97;;
59950;SDS011;45812;53.540;9.774;2023-06-22T06:24:38;7.47;;;4.33;;
59950;SDS011;45812;53.540;9.774;2023-06-22T06:27:03;11.43;;;4.87;;
59950;SDS011;45812;53.540;9.774;2023-06-22T06:29:29;12.02;;;4.90;;
59950;SDS011;45812;53.540;9.774;2023-06-22T06:31:56;7.85;;;4.25;;
59950;SDS011;45812;53.540;9.774;2023-06-22T06:34:21;8.40;;;4.43;;
59950;SDS011;45812;53.540;9.774;2023-06-22T06:36:47;9.82;;;4.60;;
59950;SDS011;45812;53.540;9.774;2023-06-22T06:39:12;7.57;;;4.43;;
59950;SDS011;45812;53.540;9.774;2023-06-22T06:41:37;6.30;;;3.90;;
59950;SDS011;45812;53.540;9.774;2023-06-22T06:44:03;9.07;;;3.95;;
59950;SDS011;45812;53.540;9.774;2023-06-22T06:46:28;7.03;;;3.72;;
59950;SDS011;45812;53.540;9.774;2023-06-22T06:48:53;6.67;;;3.93;;
59950;SDS011;45812;53.540;9.774;2023-06-22T06:51:19;8.93;;;3.80;;
59950;SDS011;45812;53.540;9.774;2023-06-22T06:53:44;8.03;;;4.30;;
59950;SDS011;45812;53.540;9.774;2023-06-22T06:56:09;6.73;;;4.03;;
59950;SDS011;45812;53.540;9.774;2023-06-22T06:58:35;7.88;;;4.07;;
59950;SDS011;45812;53.540;9.774;2023-06-22T07:01:01;8.00;;;3.67;;
59950;SDS011;45812;53.540;9.774;2023-06-22T07:03:27;7.78;;;3.95;;
59950;SDS011;45812;53.540;9.774;2023-06-22T07:05:53;6.63;;;4.07;;
59950;SDS011;45812;53.540;9.774;2023-06-22T07:08:18;9.43;;;3.67;;
59950;SDS011;45812;53.540;9.774;2023-06-22T07:10:43;7.68;;;3.97;;
59950;SDS011;45812;53.540;9.774;2023-06-22T07:13:08;7.20;;;3.60;;
59950;SDS011;45812;53.540;9.774;2023-06-22T07:15:34;7.53;;;3.97;;
59950;SDS011;45812;53.540;9.774;2023-06-22T07:17:59;7.13;;;3.80;;
59950;SDS011;45812;53.540;9.774;2023-06-22T07:20:24;5.82;;;3.25;;
59950;SDS011;45812;53.540;9.774;2023-06-22T07:22:49;9.00;;;3.90;;
59950;SDS011;45812;53.540;9.774;2023-06-22T07:25:16;4.80;;;3.20;;
59950;SDS011;45812;53.540;9.774;2023-06-22T07:27:46;8.18;;;3.35;;
59950;SDS011;45812;53.540;9.774;2023-06-22T07:30:21;6.93;;;3.33;;
59950;SDS011;45812;53.540;9.774;2023-06-22T07:32:47;5.47;;;3.80;;
59950;SDS011;45812;53.540;9.774;2023-06-22T07:35:12;5.03;;;3.60;;
59950;SDS011;45812;53.540;9.774;2023-06-22T07:37:37;9.53;;;3.93;;
59950;SDS011;45812;53.540;9.774;2023-06-22T07:40:02;6.85;;;4.07;;
59950;SDS011;45812;53.540;9.774;2023-06-22T07:42:31;7.63;;;3.25;;
59950;SDS011;45812;53.540;9.774;2023-06-22T07:44:57;5.22;;;3.50;;
59950;SDS011;45812;53.540;9.774;2023-06-22T07:47:23;4.57;;;3.53;;
59950;SDS011;45812;53.540;9.774;2023-06-22T07:49:51;5.43;;;3.50;;
59950;SDS011;45812;53.540;9.774;2023-06-22T07:52:17;9.05;;;3.65;;
59950;SDS011;45812;53.540;9.774;2023-06-22T07:54:42;7.77;;;3.70;;
59950;SDS011;45812;53.540;9.774;2023-06-22T07:57:07;10.93;;;3.77;;
59950;SDS011;45812;53.540;9.774;2023-06-22T07:59:32;9.45;;;4.18;;
59950;SDS011;45812;53.540;9.774;2023-06-22T08:01:58;5.57;;;3.37;;
59950;SDS011;45812;53.540;9.774;2023-06-22T08:04:23;7.22;;;3.45;;
59950;SDS011;45812;53.540;9.774;2023-06-22T08:06:48;8.30;;;3.13;;
59950;SDS011;45812;53.540;9.774;2023-06-22T08:09:14;10.98;;;3.15;;
59950;SDS011;45812;53.540;9.774;2023-06-22T08:11:39;6.53;;;3.13;;
59950;SDS011;45812;53.540;9.774;2023-06-22T08:14:04;4.03;;;2.90;;
59950;SDS011;45812;53.540;9.774;2023-06-22T08:16:30;4.60;;;3.20;;
59950;SDS011;45812;53.540;9.774;2023-06-22T08:18:55;5.53;;;3.43;;
59950;SDS011;45812;53.540;9.774;2023-06-22T08:21:20;5.78;;;2.97;;
59950;SDS011;45812;53.540;9.774;2023-06-22T08:23:46;6.40;;;3.27;;
59950;SDS011;45812;53.540;9.774;2023-06-22T08:26:11;6.37;;;2.97;;
59950;SDS011;45812;53.540;9.774;2023-06-22T08:28:36;4.90;;;2.90;;
59950;SDS011;45812;53.540;9.774;2023-06-22T08:31:02;5.68;;;3.60;;
59950;SDS011;45812;53.540;9.774;2023-06-22T08:33:27;5.18;;;3.33;;
59950;SDS011;45812;53.540;9.774;2023-06-22T08:35:55;5.20;;;3.30;;
59950;SDS011;45812;53.540;9.774;2023-06-22T08:38:21;5.85;;;3.25;;
59950;SDS011;45812;53.540;9.774;2023-06-22T08:40:46;8.53;;;3.60;;
59950;SDS011;45812;53.540;9.774;2023-06-22T08:43:11;4.95;;;3.22;;
59950;SDS011;45812;53.540;9.774;2023-06-22T08:45:37;7.27;;;3.30;;
59950;SDS011;45812;53.540;9.774;2023-06-22T08:48:02;4.77;;;3.50;;
59950;SDS011;45812;53.540;9.774;2023-06-22T08:50:27;7.47;;;3.33;;
59950;SDS011;45812;53.540;9.774;2023-06-22T08:52:53;8.47;;;3.00;;
59950;SDS011;45812;53.540;9.774;2023-06-22T08:55:18;9.13;;;2.70;;
59950;SDS011;45812;53.540;9.774;2023-06-22T08:57:43;4.73;;;2.57;;
59950;SDS011;45812;53.540;9.774;2023-06-22T09:00:09;7.72;;;2.67;;
59950;SDS011;45812;53.540;9.774;2023-06-22T09:02:41;5.85;;;2.80;;
59950;SDS011;45812;53.540;9.774;2023-06-22T09:05:06;5.53;;;2.40;;
59950;SDS011;45812;53.540;9.774;2023-06-22T09:07:32;5.18;;;3.00;;
59950;SDS011;45812;53.540;9.774;2023-06-22T09:09:57;5.20;;;3.00;;
59950;SDS011;45812;53.540;9.774;2023-06-22T09:12:22;7.75;;;2.90;;
59950;SDS011;45812;53.540;9.774;2023-06-22T09:14:50;5.78;;;3.15;;
59950;SDS011;45812;53.540;9.774;2023-06-22T09:17:16;7.72;;;2.95;;
59950;SDS011;45812;53.540;9.774;2023-06-22T09:19:41;5.80;;;2.70;;
59950;SDS011;45812;53.540;9.774;2023-06-22T09:22:06;5.63;;;3.10;;
59950;SDS011;45812;53.540;9.774;2023-06-22T09:24:32;6.88;;;2.97;;
59950;SDS011;45812;53.540;9.774;2023-06-22T09:26:57;4.47;;;3.08;;
59950;SDS011;45812;53.540;9.774;2023-06-22T09:29:23;4.57;;;3.20;;
59950;SDS011;45812;53.540;9.774;2023-06-22T09:31:48;6.77;;;2.67;;
59950;SDS011;45812;53.540;9.774;2023-06-22T09:34:14;7.18;;;3.30;;
59950;SDS011;45812;53.540;9.774;2023-06-22T09:36:40;6.83;;;2.97;;
59950;SDS011;45812;53.540;9.774;2023-06-22T09:39:06;5.57;;;3.10;;
59950;SDS011;45812;53.540;9.774;2023-06-22T09:41:31;5.25;;;3.00;;
59950;SDS011;45812;53.540;9.774;2023-06-22T09:43:57;5.43;;;3.00;;
59950;SDS011;45812;53.540;9.774;2023-06-22T09:46:22;5.22;;;3.00;;
59950;SDS011;45812;53.540;9.774;2023-06-22T09:48:50;5.05;;;2.97;;
59950;SDS011;45812;53.540;9.774;2023-06-22T09:51:15;7.45;;;3.78;;
59950;SDS011;45812;53.540;9.774;2023-06-22T09:53:40;9.90;;;3.27;;
59950;SDS011;45812;53.540;9.774;2023-06-22T09:56:05;5.17;;;2.80;;
59950;SDS011;45812;53.540;9.774;2023-06-22T09:58:31;6.15;;;2.80;;
59950;SDS011;45812;53.540;9.774;2023-06-22T10:00:56;2.85;;;2.65;;
59950;SDS011;45812;53.540;9.774;2023-06-22T10:03:22;7.95;;;3.08;;
59950;SDS011;45812;53.540;9.774;2023-06-22T10:05:47;8.07;;;3.42;;
59950;SDS011;45812;53.540;9.774;2023-06-22T10:08:13;8.27;;;3.20;;
59950;SDS011;45812;53.540;9.774;2023-06-22T10:10:38;5.50;;;3.13;;
59950;SDS011;45812;53.540;9.774;2023-06-22T10:13:12;6.17;;;3.50;;
59950;SDS011;45812;53.540;9.774;2023-06-22T10:15:38;7.70;;;3.13;;
59950;SDS011;45812;53.540;9.774;2023-06-22T10:18:03;7.80;;;3.10;;
59950;SDS011;45812;53.540;9.774;2023-06-22T10:20:29;10.60;;;3.05;;
59950;SDS011;45812;53.540;9.774;2023-06-22T10:22:54;6.35;;;3.47;;
59950;SDS011;45812;53.540;9.774;2023-06-22T10:25:20;5.72;;;3.03;;
59950;SDS011;45812;53.540;9.774;2023-06-22T10:27:46;7.30;;;3.42;;
59950;SDS011;45812;53.540;9.774;2023-06-22T10:30:11;4.53;;;2.97;;
59950;SDS011;45812;53.540;9.774;2023-06-22T10:32:40;4.82;;;3.30;;
59950;SDS011;45812;53.540;9.774;2023-06-22T10:35:08;6.90;;;3.58;;
59950;SDS011;45812;53.540;9.774;2023-06-22T10:37:36;6.70;;;3.30;;
59950;SDS011;45812;53.540;9.774;2023-06-22T10:40:01;4.32;;;2.63;;
59950;SDS011;45812;53.540;9.774;2023-06-22T10:42:28;7.82;;;3.00;;
59950;SDS011;45812;53.540;9.774;2023-06-22T10:44:53;5.13;;;3.63;;
59950;SDS011;45812;53.540;9.774;2023-06-22T10:47:18;5.87;;;3.20;;
59950;SDS011;45812;53.540;9.774;2023-06-22T10:49:44;3.57;;;2.97;;
59950;SDS011;45812;53.540;9.774;2023-06-22T10:52:09;6.50;;;3.43;;
59950;SDS011;45812;53.540;9.774;2023-06-22T10:54:35;4.03;;;2.73;;
59950;SDS011;45812;53.540;9.774;2023-06-22T10:57:01;5.97;;;3.13;;
59950;SDS011;45812;53.540;9.774;2023-06-22T10:59:27;5.18;;;3.03;;
59950;SDS011;45812;53.540;9.774;2023-06-22T11:01:53;5.50;;;2.88;;
59950;SDS011;45812;53.540;9.774;2023-06-22T11:04:18;5.93;;;3.17;;
59950;SDS011;45812;53.540;9.774;2023-06-22T11:06:44;3.97;;;3.40;;
59950;SDS011;45812;53.540;9.774;2023-06-22T11:09:09;4.47;;;3.13;;
59950;SDS011;45812;53.540;9.774;2023-06-22T11:11:34;5.72;;;3.35;;
59950;SDS011;45812;53.540;9.774;2023-06-22T11:14:00;4.30;;;3.03;;
59950;SDS011;45812;53.540;9.774;2023-06-22T11:16:25;4.27;;;2.67;;
59950;SDS011;45812;53.540;9.774;2023-06-22T11:18:50;5.33;;;3.60;;
59950;SDS011;45812;53.540;9.774;2023-06-22T11:21:15;4.03;;;3.00;;
59950;SDS011;45812;53.540;9.774;2023-06-22T11:23:41;5.93;;;3.17;;
59950;SDS011;45812;53.540;9.774;2023-06-22T11:26:07;6.15;;;3.47;;
59950;SDS011;45812;53.540;9.774;2023-06-22T11:28:32;6.13;;;3.37;;
59950;SDS011;45812;53.540;9.774;2023-06-22T11:30:58;4.72;;;3.35;;
59950;SDS011;45812;53.540;9.774;2023-06-22T11:33:23;6.70;;;4.30;;
59950;SDS011;45812;53.540;9.774;2023-06-22T11:35:48;8.07;;;3.70;;
59950;SDS011;45812;53.540;9.774;2023-06-22T11:38:13;6.10;;;3.53;;
59950;SDS011;45812;53.540;9.774;2023-06-22T11:40:39;5.40;;;3.27;;
59950;SDS011;45812;53.540;9.774;2023-06-22T11:43:04;7.63;;;3.40;;
59950;SDS011;45812;53.540;9.774;2023-06-22T11:45:29;7.23;;;3.33;;
59950;SDS011;45812;53.540;9.774;2023-06-22T11:47:54;3.73;;;3.43;;
59950;SDS011;45812;53.540;9.774;2023-06-22T11:50:20;5.57;;;3.77;;
59950;SDS011;45812;53.540;9.774;2023-06-22T11:52:45;6.30;;;3.63;;
59950;SDS011;45812;53.540;9.774;2023-06-22T11:55:10;4.07;;;3.43;;
59950;SDS011;45812;53.540;9.774;2023-06-22T11:57:36;4.53;;;3.60;;
59950;SDS011;45812;53.540;9.774;2023-06-22T12:00:05;5.70;;;3.53;;
59950;SDS011;45812;53.540;9.774;2023-06-22T12:02:41;4.28;;;3.83;;
59950;SDS011;45812;53.540;9.774;2023-06-22T12:05:06;4.40;;;3.73;;
59950;SDS011;45812;53.540;9.774;2023-06-22T12:07:32;6.90;;;3.95;;
59950;SDS011;45812;53.540;9.774;2023-06-22T12:09:58;5.93;;;3.50;;
59950;SDS011;45812;53.540;9.774;2023-06-22T12:12:23;7.80;;;4.20;;
59950;SDS011;45812;53.540;9.774;2023-06-22T12:14:49;6.55;;;3.75;;
59950;SDS011;45812;53.540;9.774;2023-06-22T12:17:14;4.80;;;3.70;;
59950;SDS011;45812;53.540;9.774;2023-06-22T12:19:39;5.73;;;3.37;;
59950;SDS011;45812;53.540;9.774;2023-06-22T12:22:04;5.18;;;3.25;;
59950;SDS011;45812;53.540;9.774;2023-06-22T12:24:30;3.97;;;3.13;;
59950;SDS011;45812;53.540;9.774;2023-06-22T12:26:55;8.57;;;3.63;;
59950;SDS011;45812;53.540;9.774;2023-06-22T12:29:20;6.27;;;3.40;;
59950;SDS011;45812;53.540;9.774;2023-06-22T12:31:45;4.60;;;3.70;;
59950;SDS011;45812;53.540;9.774;2023-06-22T12:34:11;5.30;;;3.70;;
59950;SDS011;45812;53.540;9.774;2023-06-22T12:36:36;9.07;;;3.80;;
59950;SDS011;45812;53.540;9.774;2023-06-22T12:39:01;5.07;;;3.57;;
59950;SDS011;45812;53.540;9.774;2023-06-22T12:41:26;8.03;;;3.90;;
59950;SDS011;45812;53.540;9.774;2023-06-22T12:43:52;6.57;;;3.70;;
59950;SDS011;45812;53.540;9.774;2023-06-22T12:46:17;7.43;;;3.60;;
59950;SDS011;45812;53.540;9.774;2023-06-22T12:48:42;6.30;;;3.60;;
59950;SDS011;45812;53.540;9.774;2023-06-22T12:51:08;7.07;;;4.00;;
59950;SDS011;45812;53.540;9.774;2023-06-22T12:53:34;4.25;;;3.63;;
59950;SDS011;45812;53.540;9.774;2023-06-22T12:55:59;8.13;;;4.03;;
59950;SDS011;45812;53.540;9.774;2023-06-22T12:58:24;5.03;;;3.80;;
59950;SDS011;45812;53.540;9.774;2023-06-22T13:00:50;4.20;;;3.67;;
59950;SDS011;45812;53.540;9.774;2023-06-22T13:03:15;9.93;;;4.07;;
59950;SDS011;45812;53.540;9.774;2023-06-22T13:05:40;7.10;;;4.17;;
59950;SDS011;45812;53.540;9.774;2023-06-22T13:08:05;4.30;;;3.43;;
59950;SDS011;45812;53.540;9.774;2023-06-22T13:10:31;6.57;;;3.50;;
59950;SDS011;45812;53.540;9.774;2023-06-22T13:12:56;5.17;;;3.90;;
59950;SDS011;45812;53.540;9.774;2023-06-22T13:15:26;4.10;;;3.70;;
59950;SDS011;45812;53.540;9.774;2023-06-22T13:17:53;5.07;;;3.55;;
59950;SDS011;45812;53.540;9.774;2023-06-22T13:20:18;5.88;;;4.50;;
59950;SDS011;45812;53.540;9.774;2023-06-22T13:22:44;6.07;;;4.60;;
59950;SDS011;45812;53.540;9.774;2023-06-22T13:25:09;4.40;;;3.70;;
59950;SDS011;45812;53.540;9.774;2023-06-22T13:27:37;7.32;;;4.65;;
59950;SDS011;45812;53.540;9.774;2023-06-22T13:30:04;5.35;;;4.20;;
59950;SDS011;45812;53.540;9.774;2023-06-22T13:32:29;8.32;;;4.18;;
59950;SDS011;45812;53.540;9.774;2023-06-22T13:34:55;9.60;;;4.47;;
59950;SDS011;45812;53.540;9.774;2023-06-22T13:37:20;5.53;;;4.33;;
59950;SDS011;45812;53.540;9.774;2023-06-22T13:39:45;9.63;;;4.20;;
59950;SDS011;45812;53.540;9.774;2023-06-22T13:42:10;4.53;;;3.70;;
59950;SDS011;45812;53.540;9.774;2023-06-22T13:44:36;5.13;;;4.40;;
59950;SDS011;45812;53.540;9.774;2023-06-22T13:47:01;5.27;;;4.30;;
59950;SDS011;45812;53.540;9.774;2023-06-22T13:49:26;6.68;;;4.22;;
59950;SDS011;45812;53.540;9.774;2023-06-22T13:51:52;5.27;;;4.00;;
59950;SDS011;45812;53.540;9.774;2023-06-22T13:54:17;4.87;;;4.37;;
59950;SDS011;45812;53.540;9.774;2023-06-22T13:56:42;5.77;;;4.20;;
59950;SDS011;45812;53.540;9.774;2023-06-22T13:59:07;9.37;;;5.10;;
59950;SDS011;45812;53.540;9.774;2023-06-22T14:01:34;7.65;;;4.35;;
59950;SDS011;45812;53.540;9.774;2023-06-22T14:04:04;5.22;;;4.03;;
59950;SDS011;45812;53.540;9.774;2023-06-22T14:06:30;7.80;;;4.35;;
59950;SDS011;45812;53.540;9.774;2023-06-22T14:08:55;5.03;;;4.07;;
59950;SDS011;45812;53.540;9.774;2023-06-22T14:11:21;4.75;;;4.25;;
59950;SDS011;45812;53.540;9.774;2023-06-22T14:13:46;6.23;;;4.80;;
59950;SDS011;45812;53.540;9.774;2023-06-22T14:16:11;5.00;;;4.43;;
59950;SDS011;45812;53.540;9.774;2023-06-22T14:18:36;7.37;;;4.60;;
59950;SDS011;45812;53.540;9.774;2023-06-22T14:21:02;7.43;;;4.40;;
59950;SDS011;45812;53.540;9.774;2023-06-22T14:23:27;5.45;;;4.10;;
59950;SDS011;45812;53.540;9.774;2023-06-22T14:25:52;8.60;;;4.10;;
59950;SDS011;45812;53.540;9.774;2023-06-22T14:28:18;4.38;;;3.85;;
59950;SDS011;45812;53.540;9.774;2023-06-22T14:30:43;6.60;;;4.13;;
59950;SDS011;45812;53.540;9.774;2023-06-22T14:33:08;5.55;;;4.32;;
59950;SDS011;45812;53.540;9.774;2023-06-22T14:35:33;4.73;;;3.90;;
59950;SDS011;45812;53.540;9.774;2023-06-22T14:37:59;7.13;;;4.07;;
59950;SDS011;45812;53.540;9.774;2023-06-22T14:40:24;6.63;;;4.50;;
59950;SDS011;45812;53.540;9.774;2023-06-22T14:42:49;5.80;;;4.30;;
59950;SDS011;45812;53.540;9.774;2023-06-22T14:45:14;5.07;;;4.40;;
59950;SDS011;45812;53.540;9.774;2023-06-22T14:47:40;6.00;;;4.40;;
59950;SDS011;45812;53.540;9.774;2023-06-22T14:50:05;5.90;;;4.23;;